Help Support FanGraphs



Jaime Garcia
Birthdate: 7/8/1986 (30 y, 8 m, 15 d)     Bats/Throws: L/L     Height/Weight: 6-1/200     Position: P
Drafted: 2005 June Amateur Draft - Round: 22, Pick: 30, Overall: 680, Team: St. Louis Cardinals
Contract: $27.5M / 4 Years (2012 - 2015) + 2 Option Years
RotoWire News: Garcia allowed two walks and struck out one in three no-hit, shutout innings during Sunday's Grapefruit League game against the Yankees. (3/13/2017)
Profiles:  2011  2012  2013  2014  2015  2016  2017  (Click Year to Expand / Close)
Profile: Jaime Garcia pitched more than 130 innings since 2011. Yet after pitching admirably through April and May, he absolutely bombed from June onward. It's an unfair characterization of his season - his 3.77 xFIP points to the abominable 20.2% home run-to-fly ball rate (HR/FB) that obliterated his season. It just seems like Garcia was a primary victim of last year's home run surge. His strikeout and walk rates never overwhelm, but he's still a ground ball king with no discernible weaknesses otherwise-- well, except for his health, but at this point, it's a well-established risk. Garcia's move from St. Louis to Atlanta dings his draft stock pretty hard, but he was never going to be a mixed-league starter for you anyway. He's rebound material, albeit one with limited upside. You can probably land him in NL-only leagues on the cheap, and he'll make for a fine starter for as long as he's healthy. Otherwise, his days of mid-3.00 ERAs and middling strikeout rates, while not necessarily behind him, are not particularly helpful in this day and age of massive whiffs and dominant young arms. (Alex Chamberlain)

The Quick Opinion: Jaime Garcia won't be anywhere near as bad as he was last year, but he also doesn't have the upside his ground ball tendencies and base runner prevention might suggest. Being in Atlanta won't do him any favors, either. He's best left for deep mixed leagues and NL-only formats, although he could probably be bought at basement prices given his awful 2016 and history of poor health.

If you would like to make a projection for this player, please Log In or Register.




Season: 
   Dates: 
to
   

DateTeamOppGSO-Swing%Z-Swing%Swing%O-Contact%Z-Contact%Contact%Zone%Pace
Total- - -- - -2035.8 %60.9 %48.2 %51.3 %90.3 %75.5 %49.1 %20.7
DateTeamOppGSO-Swing%Z-Swing%Swing%O-Contact%Z-Contact%Contact%Zone%Pace
2012-10-01STLCIN139.0 %55.1 %47.8 %50.0 %96.3 %79.1 %54.4 %21.5
2012-09-25STL@HOU137.8 %59.6 %48.9 %41.2 %85.7 %68.9 %51.1 %23.0
2012-09-20STLHOU141.1 %55.0 %46.9 %73.9 %90.9 %82.2 %41.7 %21.0
2012-09-15STL@LAD148.1 %60.0 %53.3 %56.0 %87.5 %71.4 %43.5 %22.7
2012-09-10STL@SDP128.1 %60.7 %43.3 %33.3 %82.4 %65.4 %46.7 %22.3
2012-09-04STLNYM123.3 %60.8 %43.6 %60.0 %93.6 %85.4 %54.3 %20.5
2012-08-30STL@WSN137.5 %64.9 %49.4 %55.6 %100.0 %81.0 %43.5 %21.9
2012-08-25STL@CIN142.9 %60.0 %51.7 %61.1 %81.5 %73.3 %51.7 %21.9
2012-08-19STLPIT135.9 %57.4 %46.7 %57.9 %83.9 %74.0 %50.5 %19.5
2012-06-05STL@HOU140.9 %61.9 %51.2 %44.4 %76.9 %63.6 %48.8 %26.9
2012-05-26STLPHI126.1 %57.8 %41.8 %50.0 %92.3 %79.0 %49.5 %21.5
2012-05-21STLSDP152.0 %73.7 %61.4 %38.5 %89.3 %64.8 %43.2 %18.2
2012-05-16STL@SFG144.4 %66.0 %55.4 %30.0 %87.1 %64.7 %51.1 %20.5
2012-05-11STLATL132.7 %51.0 %41.6 %52.9 %96.0 %78.6 %48.5 %18.5
2012-05-05STL@HOU132.7 %60.9 %46.3 %50.0 %96.4 %79.6 %48.4 %20.2
2012-04-29STLMIL134.0 %66.7 %50.0 %47.1 %84.4 %71.4 %49.0 %20.7
2012-04-23STL@CHC134.3 %64.0 %51.8 %50.0 %93.8 %81.8 %58.8 %18.1
2012-04-18STLCIN117.8 %65.9 %41.6 %75.0 %93.1 %89.2 %49.4 %18.2
2012-04-11STL@CIN139.5 %57.9 %48.2 %35.3 %100.0 %71.8 %46.9 %21.6
2012-04-06STL@MIL125.0 %62.8 %43.7 %72.7 %88.9 %84.2 %49.4 %19.2